Time;durP1;ratioP1;P1;durP2;ratioP2;P2;SDS_P1;SDS_P2;PMS_P1;PMS_P2;Temp;Humidity;BMP_temperature;BMP_pressure;BME280_temperature;BME280_humidity;BME280_pressure;Samples;Min_cycle;Max_cycle;Signal;HPM_P1;HPM_P2
2023/05/10 00:00:28;;;;;;;9.90;3.13;;;;;;;14.19;56.88;100706.16;5116977;28;20528;-65
2023/05/10 00:02:54;;;;;;;8.57;3.40;;;;;;;14.19;57.01;100701.50;5117163;28;20440;-66
2023/05/10 00:05:21;;;;;;;8.00;3.00;;;;;;;14.11;56.98;100699.59;5117658;28;20511;-66
2023/05/10 00:07:48;;;;;;;8.70;3.23;;;;;;;14.07;56.84;100698.63;5116843;28;20444;-67
2023/05/10 00:10:14;;;;;;;7.90;2.97;;;;;;;14.02;57.34;100694.16;5116875;28;20475;-67
2023/05/10 00:12:42;;;;;;;16.43;4.10;;;;;;;13.96;57.69;100694.66;5117020;28;20435;-67
2023/05/10 00:15:10;;;;;;;9.77;3.10;;;;;;;13.99;57.29;100692.09;5116923;28;20467;-67
2023/05/10 00:17:36;;;;;;;7.70;3.00;;;;;;;14.03;57.67;100684.06;5116606;28;20447;-67
2023/05/10 00:20:04;;;;;;;7.23;3.40;;;;;;;13.99;57.20;100688.53;5116648;28;20464;-67
2023/05/10 00:22:31;;;;;;;8.43;3.17;;;;;;;13.99;57.21;100683.09;5116416;28;20814;-67
2023/05/10 00:24:58;;;;;;;10.10;3.50;;;;;;;14.01;56.97;100672.69;5116720;28;20535;-65
2023/05/10 00:27:24;;;;;;;9.80;2.80;;;;;;;13.98;56.91;100678.78;5116965;28;20475;-67
2023/05/10 00:29:52;;;;;;;8.30;3.33;;;;;;;13.96;57.07;100678.31;5116046;28;20977;-67
2023/05/10 00:32:19;;;;;;;13.23;3.37;;;;;;;13.95;57.30;100666.63;5116570;28;20444;-67
2023/05/10 00:34:45;;;;;;;16.63;3.80;;;;;;;13.87;57.48;100660.06;5116250;28;20824;-67
2023/05/10 00:37:12;;;;;;;9.03;3.13;;;;;;;13.85;57.50;100667.72;5115934;28;20481;-65
2023/05/10 00:39:38;;;;;;;8.10;3.53;;;;;;;13.87;57.57;100665.50;5115560;28;20459;-66
2023/05/10 00:42:05;;;;;;;12.63;3.47;;;;;;;13.83;57.28;100663.75;5116106;28;20443;-65
2023/05/10 00:44:32;;;;;;;9.43;3.57;;;;;;;13.82;56.74;100665.66;5115702;28;20439;-66
2023/05/10 00:47:00;;;;;;;7.83;2.97;;;;;;;13.76;57.45;100663.41;5115804;28;20519;-66
2023/05/10 00:49:27;;;;;;;7.87;3.53;;;;;;;13.66;57.79;100652.84;5115293;28;20491;-66
2023/05/10 00:51:54;;;;;;;8.00;3.27;;;;;;;13.69;57.70;100653.00;5115547;28;20447;-66
2023/05/10 00:54:21;;;;;;;8.77;3.60;;;;;;;13.69;57.88;100658.47;5115601;28;20940;-66
2023/05/10 00:56:49;;;;;;;10.17;4.03;;;;;;;13.75;57.78;100650.91;5115434;28;20456;-65
2023/05/10 00:59:16;;;;;;;10.20;3.17;;;;;;;13.77;57.12;100652.22;5115428;28;20498;-66
2023/05/10 01:01:43;;;;;;;7.50;2.40;;;;;;;13.73;57.47;100650.47;5115600;28;20860;-65
2023/05/10 01:04:12;;;;;;;11.20;3.50;;;;;;;13.75;57.10;100657.16;5115337;28;20442;-66
2023/05/10 01:06:39;;;;;;;10.90;4.30;;;;;;;13.72;57.72;100644.19;5115440;28;20443;-66
2023/05/10 01:09:06;;;;;;;7.60;2.73;;;;;;;13.69;58.10;100646.78;5115287;28;20463;-66
2023/05/10 01:11:33;;;;;;;10.13;3.37;;;;;;;13.69;57.81;100644.84;5115352;28;20555;-66
2023/05/10 01:14:00;;;;;;;9.27;3.50;;;;;;;13.65;58.17;100649.31;5115366;28;20883;-66
2023/05/10 01:16:28;;;;;;;6.83;3.07;;;;;;;13.62;58.83;100639.06;5115107;28;20859;-66
2023/05/10 01:18:55;;;;;;;9.93;3.23;;;;;;;13.60;59.04;100633.16;5114619;28;20472;-66
2023/05/10 01:21:33;;;;;;;12.20;3.47;;;;;;;13.53;59.63;100633.63;5115034;28;20578;-65
2023/05/10 01:24:21;;;;;;;9.47;3.53;;;;;;;13.50;59.33;100633.44;5114856;28;20927;-65
2023/05/10 01:27:21;;;;;;;8.93;3.40;;;;;;;13.44;59.64;100632.81;5114766;28;20431;-66
2023/05/10 01:30:11;;;;;;;7.80;3.00;;;;;;;13.41;59.70;100628.00;5114179;28;20544;-65
2023/05/10 01:32:46;;;;;;;9.93;3.73;;;;;;;13.36;60.07;100628.97;5114690;28;20515;-67
2023/05/10 01:35:17;;;;;;;10.23;3.30;;;;;;;13.32;59.28;100627.19;5114964;28;20423;-66
2023/05/10 01:37:51;;;;;;;10.10;3.50;;;;;;;13.24;59.72;100630.72;5114664;28;20502;-65
2023/05/10 01:40:24;;;;;;;6.93;2.80;;;;;;;13.17;59.12;100625.72;5114209;28;20468;-66
2023/05/10 01:42:54;;;;;;;8.70;4.10;;;;;;;13.05;59.81;100620.88;5114177;28;20503;-65
2023/05/10 01:45:27;;;;;;;9.10;3.47;;;;;;;12.92;60.12;100626.44;5115235;28;20439;-65
2023/05/10 01:48:03;;;;;;;12.17;4.07;;;;;;;12.94;60.32;100616.88;5114903;28;20555;-65
2023/05/10 01:50:31;;;;;;;9.00;4.00;;;;;;;12.95;61.26;100628.53;5115040;28;20416;-63
2023/05/10 01:53:01;;;;;;;8.63;3.80;;;;;;;12.94;61.70;100622.31;5114937;28;20539;-65
2023/05/10 01:55:31;;;;;;;9.00;3.53;;;;;;;12.95;61.57;100628.53;5115041;28;20475;-65
2023/05/10 01:58:04;;;;;;;8.93;3.77;;;;;;;12.93;61.53;100622.63;5114738;28;20456;-65
2023/05/10 02:00:32;;;;;;;11.77;3.93;;;;;;;12.87;61.92;100624.66;5114773;28;20515;-65
2023/05/10 02:03:04;;;;;;;8.97;3.90;;;;;;;12.90;61.65;100620.53;5114534;28;20450;-66
2023/05/10 02:05:33;;;;;;;14.40;3.80;;;;;;;12.92;62.06;100626.44;5114141;28;20511;-65
2023/05/10 02:08:02;;;;;;;8.20;3.63;;;;;;;12.93;62.00;100622.63;5114724;28;20466;-65
2023/05/10 02:10:29;;;;;;;8.43;3.83;;;;;;;12.98;61.80;100617.03;5114345;28;20483;-65
2023/05/10 02:12:59;;;;;;;8.57;3.63;;;;;;;12.90;61.38;100621.31;5115121;28;20447;-65
2023/05/10 02:15:27;;;;;;;7.33;3.33;;;;;;;12.86;61.43;100614.91;5114748;28;20440;-65
2023/05/10 02:17:56;;;;;;;8.63;3.63;;;;;;;12.81;62.10;100613.16;5114166;28;20558;-66
2023/05/10 02:20:25;;;;;;;8.83;3.50;;;;;;;12.80;62.29;100611.56;5114532;28;20527;-65
2023/05/10 02:22:54;;;;;;;9.20;3.40;;;;;;;12.77;62.85;100608.66;5114426;28;20942;-66
2023/05/10 02:25:23;;;;;;;7.60;3.80;;;;;;;12.70;63.00;100611.81;5114266;28;20442;-64
2023/05/10 02:27:50;;;;;;;9.10;3.40;;;;;;;12.69;62.86;100607.50;5113466;28;20543;-65
2023/05/10 02:30:19;;;;;;;9.10;3.67;;;;;;;12.70;62.93;100603.66;5113801;28;20446;-64
2023/05/10 02:32:46;;;;;;;10.10;3.97;;;;;;;12.66;63.74;100605.44;5113332;28;20469;-65
2023/05/10 02:35:13;;;;;;;8.10;3.13;;;;;;;12.66;63.14;100605.44;5113237;28;20526;-68
2023/05/10 02:37:42;;;;;;;9.10;3.50;;;;;;;12.59;63.29;100603.16;5113398;28;20450;-68
2023/05/10 02:40:11;;;;;;;9.53;4.37;;;;;;;12.58;63.55;100609.72;5113612;28;20441;-68
2023/05/10 02:42:39;;;;;;;7.53;3.50;;;;;;;12.55;64.00;100610.34;5113418;28;20475;-68
2023/05/10 02:45:12;;;;;;;8.73;3.87;;;;;;;12.56;63.66;100602.97;5113443;28;20866;-68
2023/05/10 02:47:39;;;;;;;7.90;3.47;;;;;;;12.57;63.60;100605.41;5113017;28;20424;-67
2023/05/10 02:50:06;;;;;;;12.43;3.50;;;;;;;12.52;64.65;100593.84;5113004;28;20499;-68
2023/05/10 02:52:44;;;;;;;7.50;3.00;;;;;;;12.43;64.61;100598.44;5113131;28;20467;-68
2023/05/10 02:55:13;;;;;;;16.40;4.10;;;;;;;12.48;64.28;100595.59;5117134;28;20438;-67
2023/05/10 02:57:44;;;;;;;7.23;3.00;;;;;;;12.40;65.35;100601.81;5117405;28;20436;-67
2023/05/10 03:00:11;;;;;;;11.33;3.83;;;;;;;12.38;64.83;100599.38;5117029;28;20898;-68
2023/05/10 03:02:38;;;;;;;10.93;3.20;;;;;;;12.33;63.44;100599.53;5117264;28;20518;-67
2023/05/10 03:05:05;;;;;;;9.40;3.37;;;;;;;12.29;63.67;100596.63;5117199;28;20530;-66
2023/05/10 03:07:33;;;;;;;7.37;3.47;;;;;;;12.27;63.78;100600.78;5116676;28;20534;-67
2023/05/10 03:10:01;;;;;;;8.20;3.40;;;;;;;12.22;63.98;100601.72;5116808;28;20475;-68
2023/05/10 03:12:36;;;;;;;9.50;3.63;;;;;;;12.23;63.92;100608.75;5116997;28;20534;-67
2023/05/10 03:15:10;;;;;;;11.10;3.93;;;;;;;12.13;64.67;100600.88;5116994;28;20518;-67
2023/05/10 03:17:44;;;;;;;8.37;3.27;;;;;;;12.18;65.25;100589.88;5116933;28;20456;-67
2023/05/10 03:20:14;;;;;;;6.83;3.40;;;;;;;12.19;65.61;100596.91;5126881;22;20557;-70
2023/05/10 03:22:47;;;;;;;6.83;3.00;;;;;;;12.15;66.17;100600.56;5096166;28;20436;-70
2023/05/10 03:25:17;;;;;;;10.57;3.83;;;;;;;12.11;65.77;100597.66;5096694;28;20428;-70
2023/05/10 03:27:45;;;;;;;9.17;3.30;;;;;;;12.11;66.30;100592.22;5096052;28;20440;-70
2023/05/10 03:30:13;;;;;;;8.10;3.20;;;;;;;12.12;66.01;100597.31;5096264;28;20551;-70
2023/05/10 03:32:40;;;;;;;7.87;3.10;;;;;;;12.11;66.71;100603.88;5095889;28;20943;-70
2023/05/10 03:35:08;;;;;;;7.90;3.30;;;;;;;12.05;66.86;100585.34;5096275;28;20436;-69
2023/05/10 03:37:35;;;;;;;9.80;3.70;;;;;;;11.99;66.64;100597.41;5096195;28;20493;-70
2023/05/10 03:40:01;;;;;;;7.30;2.90;;;;;;;12.01;66.29;100589.78;5096154;28;20983;-69
2023/05/10 03:42:30;;;;;;;12.97;3.30;;;;;;;12.05;66.74;100593.47;5095729;28;20476;-69
2023/05/10 03:44:57;;;;;;;9.37;3.70;;;;;;;12.04;66.34;100595.38;5095766;28;20448;-69
2023/05/10 03:47:23;;;;;;;9.17;3.10;;;;;;;12.00;66.44;100593.59;5095991;28;20455;-69
2023/05/10 03:49:50;;;;;;;7.50;2.70;;;;;;;12.04;66.39;100587.25;5095878;28;20482;-70
2023/05/10 03:52:17;;;;;;;9.77;3.40;;;;;;;12.02;66.39;100585.94;5095920;28;20472;-69
2023/05/10 03:54:44;;;;;;;7.30;2.97;;;;;;;12.08;66.16;100590.91;5096028;28;20450;-69
2023/05/10 03:57:11;;;;;;;9.40;3.70;;;;;;;12.04;66.33;100586.41;5095940;28;20450;-69
2023/05/10 03:59:39;;;;;;;8.77;3.13;;;;;;;12.05;66.41;100591.56;5095389;28;20495;-69
2023/05/10 04:02:05;;;;;;;11.27;3.87;;;;;;;12.09;66.45;100580.88;5095616;28;20516;-69
2023/05/10 04:04:32;;;;;;;7.40;3.10;;;;;;;12.05;66.31;100577.97;5095226;28;20437;-70
2023/05/10 04:06:59;;;;;;;7.83;2.60;;;;;;;12.07;66.55;100577.66;5095617;28;20472;-70
2023/05/10 04:09:25;;;;;;;9.27;3.20;;;;;;;12.07;66.16;100578.47;5095445;28;20459;-70
2023/05/10 04:11:52;;;;;;;10.40;2.83;;;;;;;12.11;65.40;100584.88;5095545;28;20436;-70
2023/05/10 04:14:18;;;;;;;9.70;3.40;;;;;;;12.10;65.97;100585.19;5095479;28;20440;-70
2023/05/10 04:16:46;;;;;;;11.43;3.37;;;;;;;12.17;65.64;100577.38;5095414;28;20437;-70
2023/05/10 04:19:13;;;;;;;12.70;3.57;;;;;;;12.23;66.23;100580.78;5095111;28;20555;-70
2023/05/10 04:21:39;;;;;;;10.30;3.07;;;;;;;12.25;65.58;100583.97;5095284;28;20488;-70
2023/05/10 04:24:06;;;;;;;8.23;3.00;;;;;;;12.27;65.42;100585.28;5095548;28;20443;-70
2023/05/10 04:26:33;;;;;;;13.80;3.93;;;;;;;12.29;65.13;100574.91;5094935;28;20472;-70
2023/05/10 04:28:59;;;;;;;6.43;2.60;;;;;;;12.35;65.13;100579.09;5094850;28;20466;-70
2023/05/10 04:31:27;;;;;;;7.53;2.83;;;;;;;12.40;64.78;100566.50;5095126;28;20463;-70
2023/05/10 04:33:55;;;;;;;7.57;2.90;;;;;;;12.32;63.82;100574.28;5094833;28;20487;-70
2023/05/10 04:36:22;;;;;;;7.57;3.10;;;;;;;12.36;64.02;100569.03;5095040;28;20437;-70
2023/05/10 04:38:48;;;;;;;8.63;3.13;;;;;;;12.42;63.61;100580.56;5094906;28;20460;-70
2023/05/10 04:41:15;;;;;;;7.77;3.13;;;;;;;12.42;63.55;100577.84;5094941;28;20554;-71
2023/05/10 04:43:42;;;;;;;9.50;3.20;;;;;;;12.39;63.89;100560.22;5094593;28;20447;-70
2023/05/10 04:46:08;;;;;;;8.60;3.60;;;;;;;12.42;65.05;100572.41;5094883;28;20850;-70
2023/05/10 04:48:35;;;;;;;7.43;2.90;;;;;;;12.46;63.93;100562.50;5094350;28;20444;-70
2023/05/10 04:51:04;;;;;;;9.37;3.63;;;;;;;12.54;63.51;100567.97;5094726;28;20440;-70
2023/05/10 04:53:31;;;;;;;7.43;2.80;;;;;;;12.62;63.49;100561.78;5094769;28;20814;-70
2023/05/10 04:55:57;;;;;;;7.40;2.60;;;;;;;12.69;63.17;100572.16;5094659;28;20440;-70
2023/05/10 04:58:24;;;;;;;9.67;2.90;;;;;;;12.76;63.70;100567.09;5094322;28;20797;-70
2023/05/10 05:00:50;;;;;;;7.67;3.40;;;;;;;12.80;63.55;100568.06;5094519;28;20463;-70
2023/05/10 05:03:17;;;;;;;9.47;2.90;;;;;;;12.91;63.22;100573.19;5094591;28;20433;-71
2023/05/10 05:05:44;;;;;;;12.50;2.87;;;;;;;12.96;63.01;100575.75;5094117;28;20455;-70
2023/05/10 05:08:12;;;;;;;8.43;3.20;;;;;;;13.05;61.87;100566.50;5094112;28;20953;-71
2023/05/10 05:10:39;;;;;;;7.83;2.60;;;;;;;13.05;62.25;100571.13;5093999;28;20461;-67
2023/05/10 05:13:05;;;;;;;5.80;2.00;;;;;;;13.12;62.16;100571.47;5094048;28;20974;-70
2023/05/10 05:15:32;;;;;;;6.47;2.47;;;;;;;13.13;62.32;100571.16;5094042;28;20459;-71
2023/05/10 05:17:59;;;;;;;6.90;2.60;;;;;;;13.25;60.32;100573.28;5093693;28;20531;-71
2023/05/10 05:20:25;;;;;;;6.50;2.50;;;;;;;13.31;61.01;100572.00;5093766;28;20472;-70
2023/05/10 05:22:52;;;;;;;6.40;2.17;;;;;;;13.36;61.78;100562.88;5094118;28;20830;-71
2023/05/10 05:25:19;;;;;;;11.80;3.00;;;;;;;13.41;62.19;100556.47;5094175;28;20444;-71
2023/05/10 05:27:46;;;;;;;10.80;2.90;;;;;;;13.41;60.62;100559.19;5093800;28;20472;-71
2023/05/10 05:30:13;;;;;;;7.50;2.87;;;;;;;13.47;61.66;100561.44;5093670;28;21054;-70
2023/05/10 05:32:39;;;;;;;5.70;2.00;;;;;;;13.56;60.82;100561.44;5093987;28;20441;-70
2023/05/10 05:35:06;;;;;;;9.70;2.57;;;;;;;13.65;59.88;100561.44;5094008;28;20530;-70
2023/05/10 05:37:33;;;;;;;6.30;2.50;;;;;;;13.75;59.85;100559.16;5093956;28;20444;-70
2023/05/10 05:40:01;;;;;;;6.30;2.17;;;;;;;13.78;58.91;100555.00;5093528;28;20495;-70
2023/05/10 05:42:29;;;;;;;6.90;2.03;;;;;;;13.93;57.87;100559.13;5093781;28;20483;-70
2023/05/10 05:44:56;;;;;;;6.17;2.43;;;;;;;13.97;58.47;100560.88;5093524;28;20978;-70
2023/05/10 05:47:22;;;;;;;8.57;2.33;;;;;;;13.97;59.21;100560.09;5093789;28;20531;-70
2023/05/10 05:49:49;;;;;;;6.40;2.07;;;;;;;14.01;59.04;100556.38;5093649;28;20456;-70
2023/05/10 05:52:15;;;;;;;9.83;3.10;;;;;;;14.05;58.50;100564.72;5093644;28;20433;-70
2023/05/10 05:54:42;;;;;;;6.17;2.37;;;;;;;14.07;58.07;100551.56;5093678;28;20506;-71
2023/05/10 05:57:08;;;;;;;6.63;2.33;;;;;;;14.09;57.97;100566.47;5093247;28;20451;-71
2023/05/10 05:59:41;;;;;;;7.10;2.40;;;;;;;14.14;58.35;100560.84;5093125;28;20929;-70
2023/05/10 06:02:08;;;;;;;8.27;2.07;;;;;;;14.20;58.45;100557.94;5093489;28;20464;-71
2023/05/10 06:04:35;;;;;;;6.77;2.07;;;;;;;14.25;58.12;100557.75;5093555;28;20472;-70
2023/05/10 06:07:01;;;;;;;10.20;2.50;;;;;;;14.38;57.78;100573.06;5093495;28;20528;-70
2023/05/10 06:09:28;;;;;;;8.97;1.90;;;;;;;14.42;58.38;100576.75;5093336;28;20467;-70
2023/05/10 06:11:54;;;;;;;5.80;2.00;;;;;;;14.47;57.78;100568.38;5093344;28;20910;-70
2023/05/10 06:14:21;;;;;;;5.73;1.90;;;;;;;14.55;57.09;100572.25;5093370;28;20535;-71
2023/05/10 06:16:49;;;;;;;12.70;2.90;;;;;;;14.61;56.97;100562.78;5092939;28;20958;-68
2023/05/10 06:19:16;;;;;;;6.93;2.13;;;;;;;14.60;56.16;100561.94;5093119;28;20476;-68
2023/05/10 06:21:42;;;;;;;7.10;2.73;;;;;;;14.67;56.67;100566.91;5092919;28;20963;-68
2023/05/10 06:24:09;;;;;;;7.67;2.30;;;;;;;14.66;57.84;100562.56;5093219;28;20546;-68
2023/05/10 06:26:36;;;;;;;8.03;2.50;;;;;;;14.75;56.65;100568.00;5093265;28;20447;-65
2023/05/10 06:29:03;;;;;;;6.27;2.13;;;;;;;14.83;56.33;100562.47;5093024;28;20483;-64
2023/05/10 06:31:30;;;;;;;8.83;2.00;;;;;;;14.85;56.39;100560.22;5092746;28;20479;-65
2023/05/10 06:33:58;;;;;;;7.50;2.70;;;;;;;14.91;57.13;100557.28;5092753;28;20961;-65
2023/05/10 06:36:26;;;;;;;8.03;2.20;;;;;;;14.98;57.16;100566.56;5093017;28;20448;-65
2023/05/10 06:38:52;;;;;;;13.60;2.60;;;;;;;15.04;56.87;100558.97;5092959;28;20463;-64
2023/05/10 06:41:19;;;;;;;6.43;2.13;;;;;;;15.13;56.57;100562.44;5092991;28;20531;-66
2023/05/10 06:43:45;;;;;;;5.30;1.50;;;;;;;15.19;56.03;100555.66;5093095;28;20876;-65
2023/05/10 06:46:12;;;;;;;6.43;2.17;;;;;;;15.27;56.48;100556.69;5093064;28;20535;-68
2023/05/10 06:48:39;;;;;;;8.47;2.40;;;;;;;15.40;56.53;100555.63;5092935;28;20445;-68
2023/05/10 06:51:07;;;;;;;6.00;1.93;;;;;;;15.52;56.76;100558.44;5092983;28;20820;-66
2023/05/10 06:53:33;;;;;;;6.77;1.83;;;;;;;15.56;54.67;100559.34;5093173;28;20472;-67
2023/05/10 06:56:00;;;;;;;6.43;1.90;;;;;;;15.61;54.84;100561.09;5092923;28;20467;-67
2023/05/10 06:58:26;;;;;;;5.90;1.60;;;;;;;15.63;55.39;100567.81;5093258;28;20784;-68
2023/05/10 07:00:53;;;;;;;6.37;1.90;;;;;;;15.69;54.91;100562.97;5092654;28;20479;-67
2023/05/10 07:03:20;;;;;;;5.80;1.83;;;;;;;15.82;54.52;100563.81;5092761;28;20487;-67
2023/05/10 07:05:46;;;;;;;5.93;1.60;;;;;;;15.83;54.70;100563.47;5093074;28;20432;-67
2023/05/10 07:08:14;;;;;;;6.80;2.10;;;;;;;15.88;53.90;100563.25;5092714;28;20955;-68
2023/05/10 07:10:41;;;;;;;6.27;1.80;;;;;;;15.91;54.42;100561.00;5092300;28;20521;-67
2023/05/10 07:13:07;;;;;;;10.40;2.10;;;;;;;15.94;54.85;100552.94;5092669;28;20444;-68
2023/05/10 07:15:34;;;;;;;6.93;2.17;;;;;;;15.98;53.70;100553.84;5092749;28;20786;-68
2023/05/10 07:18:00;;;;;;;5.00;1.53;;;;;;;15.94;54.49;100549.38;5092680;28;20475;-67
2023/05/10 07:20:27;;;;;;;7.40;2.43;;;;;;;15.99;54.76;100549.97;5092223;28;20521;-70
2023/05/10 07:22:54;;;;;;;26.67;2.37;;;;;;;16.04;54.71;100548.97;5092309;28;20483;-68
2023/05/10 07:25:22;;;;;;;5.87;1.60;;;;;;;16.17;53.12;100545.09;5092340;28;20445;-68
2023/05/10 07:27:49;;;;;;;10.07;2.23;;;;;;;16.28;53.47;100540.78;5092564;28;20444;-68
2023/05/10 07:30:16;;;;;;;12.33;1.70;;;;;;;16.31;54.03;100548.31;5092171;28;20998;-68
2023/05/10 07:32:42;;;;;;;7.37;1.90;;;;;;;16.39;53.74;100547.41;5092511;28;20436;-68
2023/05/10 07:35:09;;;;;;;5.50;1.60;;;;;;;16.39;54.06;100552.06;5092528;28;20486;-68
2023/05/10 07:37:36;;;;;;;5.90;1.90;;;;;;;16.49;53.82;100550.81;5092437;28;20446;-68
2023/05/10 07:40:02;;;;;;;7.57;1.97;;;;;;;16.55;53.37;100554.91;5094126;28;20464;-68
2023/05/10 07:42:30;;;;;;;6.23;1.63;;;;;;;16.57;53.35;100553.44;5096064;28;20889;-68
2023/05/10 07:44:57;;;;;;;5.87;1.90;;;;;;;16.70;53.33;100547.97;5096022;28;20447;-68
2023/05/10 07:47:24;;;;;;;6.30;1.97;;;;;;;16.82;52.69;100557.00;5095743;28;20505;-68
2023/05/10 07:49:50;;;;;;;7.20;2.20;;;;;;;16.88;53.24;100557.56;5095914;28;20461;-68
2023/05/10 07:52:17;;;;;;;6.60;2.60;;;;;;;16.97;52.22;100546.50;5096240;28;20436;-68
2023/05/10 07:54:44;;;;;;;7.70;2.17;;;;;;;17.08;51.91;100551.13;5095923;28;20440;-68
2023/05/10 07:57:11;;;;;;;6.43;2.10;;;;;;;17.17;53.09;100564.66;5095747;28;20451;-68
2023/05/10 07:59:39;;;;;;;6.63;1.63;;;;;;;17.28;52.33;100554.84;5095799;28;20460;-68
2023/05/10 08:02:05;;;;;;;5.33;1.40;;;;;;;17.38;52.39;100557.09;5095680;28;20494;-68
2023/05/10 08:04:32;;;;;;;5.63;1.70;;;;;;;17.50;52.25;100560.94;5095711;28;20444;-69
2023/05/10 08:06:58;;;;;;;5.70;1.77;;;;;;;17.57;51.81;100564.66;5095690;28;20457;-69
2023/05/10 08:09:25;;;;;;;5.23;1.67;;;;;;;17.69;50.73;100561.06;5095601;28;20488;-68
2023/05/10 08:11:51;;;;;;;7.07;1.90;;;;;;;17.67;50.71;100559.84;5095264;28;20476;-68
2023/05/10 08:14:18;;;;;;;5.40;1.70;;;;;;;17.76;50.00;100571.47;5095550;28;20479;-68
2023/05/10 08:16:46;;;;;;;7.40;2.30;;;;;;;17.68;51.19;100559.50;5095459;28;20465;-68
2023/05/10 08:19:12;;;;;;;5.57;1.83;;;;;;;17.75;51.22;100567.94;5095223;28;20500;-68
2023/05/10 08:21:40;;;;;;;5.50;1.63;;;;;;;17.77;51.67;100554.69;5095394;28;20440;-68
2023/05/10 08:24:07;;;;;;;5.73;1.70;;;;;;;17.81;51.02;100563.78;5095262;28;20484;-68
2023/05/10 08:26:34;;;;;;;9.70;2.03;;;;;;;17.83;51.01;100564.22;5095210;28;20495;-68
2023/05/10 08:29:01;;;;;;;5.33;1.83;;;;;;;17.93;50.72;100567.59;5095234;28;20500;-69
2023/05/10 08:31:27;;;;;;;8.93;1.57;;;;;;;17.98;50.05;100564.63;5095159;28;20472;-68
2023/05/10 08:33:55;;;;;;;6.20;1.80;;;;;;;17.92;51.00;100563.28;5094980;28;20440;-68
2023/05/10 08:36:24;;;;;;;11.40;2.07;;;;;;;17.95;50.75;100565.31;5095092;28;20448;-68
2023/05/10 08:38:51;;;;;;;6.73;1.73;;;;;;;18.03;49.68;100575.34;5095008;28;20466;-68
2023/05/10 08:41:20;;;;;;;8.20;2.20;;;;;;;18.13;49.07;100577.53;5095026;28;20867;-68
2023/05/10 08:43:48;;;;;;;6.57;1.50;;;;;;;18.13;51.35;100566.59;5094620;28;20529;-68
2023/05/10 08:46:18;;;;;;;5.70;1.77;;;;;;;18.19;51.03;100573.38;5094959;28;20456;-69
2023/05/10 08:48:46;;;;;;;6.37;1.70;;;;;;;18.21;50.99;100562.88;5095171;28;20474;-68
2023/05/10 08:51:17;;;;;;;5.90;1.70;;;;;;;18.31;50.34;100575.25;5093993;28;20436;-69
2023/05/10 08:53:45;;;;;;;7.30;2.10;;;;;;;18.52;48.19;100569.50;5094484;28;20974;-69
2023/05/10 08:56:12;;;;;;;5.83;1.80;;;;;;;18.55;48.85;100583.31;5094621;28;20454;-69
2023/05/10 08:58:39;;;;;;;4.93;1.30;;;;;;;18.58;48.69;100582.59;5094685;28;20453;-68
2023/05/10 09:01:06;;;;;;;6.23;1.93;;;;;;;18.62;48.93;100572.50;5094682;28;20475;-69
2023/05/10 09:03:33;;;;;;;12.97;1.87;;;;;;;18.71;49.36;100571.56;5094489;28;20486;-69
2023/05/10 09:05:59;;;;;;;5.93;1.57;;;;;;;18.74;49.61;100574.38;5094218;28;20947;-69
2023/05/10 09:08:28;;;;;;;7.77;2.30;;;;;;;18.82;50.23;100573.41;5094178;28;20474;-69
2023/05/10 09:10:56;;;;;;;6.30;1.77;;;;;;;18.99;49.33;100574.97;5094521;28;20504;-69
2023/05/10 09:13:24;;;;;;;6.93;2.13;;;;;;;19.09;50.23;100579.09;5094196;28;20969;-69
2023/05/10 09:15:52;;;;;;;5.40;1.50;;;;;;;19.12;48.94;100578.34;5094364;28;20448;-69
2023/05/10 09:18:19;;;;;;;6.40;1.60;;;;;;;19.12;49.24;100581.09;5094210;28;20540;-69
2023/05/10 09:20:45;;;;;;;5.33;1.63;;;;;;;19.20;48.44;100577.38;5095406;28;20472;-69
2023/05/10 09:23:12;;;;;;;5.60;1.70;;;;;;;19.18;48.13;100571.44;5094160;28;20480;-69
2023/05/10 09:25:42;;;;;;;10.37;1.87;;;;;;;19.24;47.25;100586.47;5094233;28;20510;-69
2023/05/10 09:28:09;;;;;;;6.87;2.13;;;;;;;19.33;48.01;100584.31;5093830;28;20950;-69
2023/05/10 09:30:37;;;;;;;7.93;2.00;;;;;;;19.38;48.07;100577.75;5093980;28;20888;-69
2023/05/10 09:33:04;;;;;;;5.67;1.67;;;;;;;19.51;49.12;100578.41;5094039;28;20498;-70
2023/05/10 09:35:32;;;;;;;7.17;2.20;;;;;;;19.67;49.25;100579.16;5094004;28;20527;-71
2023/05/10 09:38:01;;;;;;;7.23;1.77;;;;;;;19.84;48.28;100592.44;5093637;28;20931;-73
2023/05/10 09:40:29;;;;;;;8.03;2.13;;;;;;;19.95;47.66;100586.34;5093802;28;20496;-70
2023/05/10 09:42:58;;;;;;;6.23;1.83;;;;;;;19.99;46.28;100584.47;5093852;28;20502;-70
2023/05/10 09:45:27;;;;;;;6.17;1.83;;;;;;;19.98;47.66;100577.38;5093879;28;20441;-68
2023/05/10 09:47:54;;;;;;;5.10;1.30;;;;;;;20.06;48.69;100592.84;5093431;28;20482;-69
2023/05/10 09:50:21;;;;;;;6.03;1.73;;;;;;;20.09;48.30;100592.09;5093652;28;20455;-68
2023/05/10 09:52:50;;;;;;;10.00;2.43;;;;;;;20.14;46.08;100591.81;5093697;28;20476;-69
2023/05/10 09:55:17;;;;;;;5.27;1.57;;;;;;;20.10;47.35;100590.97;5093652;28;20440;-69
2023/05/10 09:57:44;;;;;;;5.07;1.43;;;;;;;20.13;46.18;100587.47;5093623;28;20436;-69
2023/05/10 10:00:18;;;;;;;5.87;1.67;;;;;;;20.17;47.42;100585.56;5093548;28;20468;-72
2023/05/10 10:02:46;;;;;;;5.23;1.53;;;;;;;20.25;47.26;100581.78;5093282;28;20460;-69
2023/05/10 10:05:13;;;;;;;5.30;1.53;;;;;;;20.30;46.14;100587.00;5093564;28;20476;-69
2023/05/10 10:07:40;;;;;;;6.60;1.50;;;;;;;20.39;46.29;100595.00;5093241;28;20440;-69
2023/05/10 10:10:11;;;;;;;6.60;1.97;;;;;;;20.45;47.07;100592.72;5093233;28;20499;-69
2023/05/10 10:12:38;;;;;;;6.27;1.77;;;;;;;20.47;47.43;100593.97;5093250;28;20904;-69
2023/05/10 10:15:06;;;;;;;6.20;1.90;;;;;;;20.56;46.56;100591.78;5093479;28;20479;-69
2023/05/10 10:17:36;;;;;;;5.40;1.97;;;;;;;20.66;46.27;100590.34;5093209;28;20868;-69
2023/05/10 10:20:04;;;;;;;5.10;1.50;;;;;;;20.78;44.39;100590.16;5093023;28;20478;-69
2023/05/10 10:22:30;;;;;;;5.50;1.60;;;;;;;20.85;47.40;100578.44;5093302;28;20867;-69
2023/05/10 10:24:58;;;;;;;4.93;1.50;;;;;;;20.94;46.67;100576.25;5092973;28;20445;-69
2023/05/10 10:27:27;;;;;;;6.17;2.07;;;;;;;21.01;46.19;100578.28;5093207;28;20475;-69
2023/05/10 10:30:04;;;;;;;6.40;2.40;;;;;;;21.03;46.00;100575.94;5093037;28;20492;-69
2023/05/10 10:33:02;;;;;;;6.50;2.07;;;;;;;21.23;44.52;100585.69;5093472;28;20431;-69
2023/05/10 10:35:30;;;;;;;5.70;1.47;;;;;;;21.33;45.57;100576.78;5093108;28;20428;-69
2023/05/10 10:37:57;;;;;;;6.43;2.00;;;;;;;21.40;44.43;100581.59;5093110;28;20476;-69
2023/05/10 10:40:25;;;;;;;7.37;1.67;;;;;;;21.46;45.27;100582.06;5092963;28;20452;-69
2023/05/10 10:42:53;;;;;;;6.13;1.97;;;;;;;21.55;45.74;100582.56;5092926;28;20543;-68
2023/05/10 10:45:21;;;;;;;8.10;2.60;;;;;;;21.78;44.93;100583.25;5093088;28;20440;-69
2023/05/10 10:47:48;;;;;;;5.20;1.27;;;;;;;21.85;44.52;100586.06;5092726;28;20452;-70
2023/05/10 10:50:16;;;;;;;5.13;1.20;;;;;;;21.99;43.50;100579.09;5092966;28;20500;-69
2023/05/10 10:52:43;;;;;;;5.77;1.63;;;;;;;22.09;43.28;100578.41;5092977;28;20463;-69
2023/05/10 10:55:12;;;;;;;5.70;1.70;;;;;;;22.28;45.29;100574.69;5092955;28;20527;-69
2023/05/10 10:57:49;;;;;;;5.90;1.73;;;;;;;22.44;42.62;100577.19;5093193;28;20956;-69
2023/05/10 11:00:21;;;;;;;5.30;1.60;;;;;;;22.50;43.10;100575.66;5093658;28;20464;-69
2023/05/10 11:02:49;;;;;;;6.57;1.57;;;;;;;22.64;44.95;100578.53;5093030;28;20959;-69
2023/05/10 11:05:41;;;;;;;7.33;2.00;;;;;;;22.91;44.24;100573.63;5093401;28;20441;-69
2023/05/10 11:08:14;;;;;;;5.03;1.40;;;;;;;23.18;42.42;100585.22;5082853;28;20531;-69
2023/05/10 11:10:49;;;;;;;6.60;2.07;;;;;;;23.33;41.19;100578.59;5093164;28;20912;-68
2023/05/10 11:13:16;;;;;;;6.30;1.67;;;;;;;23.46;41.47;100579.00;5093048;28;20459;-69
2023/05/10 11:15:50;;;;;;;5.27;1.50;;;;;;;23.98;40.25;100585.13;5096044;28;20556;-69
2023/05/10 11:18:20;;;;;;;5.60;1.83;;;;;;;24.83;41.38;100578.06;5096700;28;20899;-69
2023/05/10 11:20:53;;;;;;;5.70;1.70;;;;;;;25.48;38.29;100575.91;5096496;28;20459;-69
2023/05/10 11:23:21;;;;;;;4.73;1.33;;;;;;;26.07;37.50;100570.44;5096573;28;20468;-70
2023/05/10 11:25:49;;;;;;;5.03;1.60;;;;;;;26.38;36.79;100577.72;5096529;28;20501;-70
2023/05/10 11:28:17;;;;;;;4.90;1.30;;;;;;;26.57;34.85;100583.97;5096462;28;20471;-69